Time;durP1;ratioP1;P1;durP2;ratioP2;P2;SDS_P1;SDS_P2;PMS_P1;PMS_P2;Temp;Humidity;BMP_temperature;BMP_pressure;BME280_temperature;BME280_humidity;BME280_pressure;Samples;Min_cycle;Max_cycle;Signal;HPM_P1;HPM_P2
2023/08/26 00:00:16;;;;;;;5.72;1.88;;;17.60;67.30;;;;;;5054291;28;20472;-86
2023/08/26 00:02:44;;;;;;;7.13;1.70;;;17.70;66.60;;;;;;5054364;28;20423;-86
2023/08/26 00:05:11;;;;;;;5.35;1.60;;;17.90;66.70;;;;;;5053149;28;20495;-83
2023/08/26 00:07:38;;;;;;;6.60;1.65;;;18.10;66.70;;;;;;5054386;28;20025;-81
2023/08/26 00:10:08;;;;;;;5.90;1.73;;;18.20;66.90;;;;;;5054258;28;20580;-86
2023/08/26 00:12:38;;;;;;;5.40;2.00;;;18.20;66.60;;;;;;5060807;28;20043;-79
2023/08/26 00:15:14;;;;;;;3.88;1.60;;;18.30;66.80;;;;;;5072382;28;20088;-82
2023/08/26 00:17:41;;;;;;;8.13;1.67;;;18.30;66.60;;;;;;5068494;28;20028;-80
2023/08/26 00:20:09;;;;;;;6.57;1.67;;;18.30;66.60;;;;;;5071697;28;20423;-82
2023/08/26 00:22:38;;;;;;;4.60;1.48;;;18.40;67.10;;;;;;5071670;28;20085;-82
2023/08/26 00:25:06;;;;;;;5.75;1.70;;;18.40;67.50;;;;;;5072673;28;20036;-77
2023/08/26 00:27:33;;;;;;;6.15;1.95;;;18.40;67.00;;;;;;5070610;28;20029;-85
2023/08/26 00:30:01;;;;;;;3.85;1.35;;;18.40;67.20;;;;;;5058641;28;20032;-78
2023/08/26 00:32:29;;;;;;;5.60;1.88;;;18.40;67.50;;;;;;5056702;28;20024;-82
2023/08/26 00:34:56;;;;;;;7.13;1.65;;;18.40;67.60;;;;;;5055388;28;20104;-82
2023/08/26 00:37:24;;;;;;;6.13;1.88;;;18.40;68.10;;;;;;5054110;28;20020;-78
2023/08/26 00:39:51;;;;;;;9.15;2.38;;;18.40;67.80;;;;;;5053435;28;20029;-78
2023/08/26 00:42:20;;;;;;;3.53;1.58;;;18.50;68.00;;;;;;5054021;28;20023;-85
2023/08/26 00:44:47;;;;;;;8.45;2.28;;;18.60;68.10;;;;;;5053402;28;20082;-83
2023/08/26 00:47:14;;;;;;;5.95;1.90;;;18.60;67.90;;;;;;5053721;28;20075;-85
2023/08/26 00:49:42;;;;;;;6.72;1.48;;;18.50;67.70;;;;;;5052459;28;20104;-85
2023/08/26 00:52:10;;;;;;;5.75;1.20;;;18.50;67.90;;;;;;5053275;28;20471;-85
2023/08/26 00:54:37;;;;;;;5.13;1.20;;;18.50;68.10;;;;;;5053176;28;20495;-86
2023/08/26 00:57:06;;;;;;;5.72;1.60;;;18.40;68.20;;;;;;5051712;28;20144;-82
2023/08/26 00:59:33;;;;;;;5.45;1.40;;;18.30;68.40;;;;;;5051663;28;20033;-86
2023/08/26 01:02:01;;;;;;;5.68;1.40;;;18.30;68.70;;;;;;5051600;28;20104;-83
2023/08/26 01:04:29;;;;;;;6.78;1.30;;;18.30;68.80;;;;;;5052411;28;20031;-81
2023/08/26 01:06:56;;;;;;;7.90;1.45;;;18.50;69.30;;;;;;5054130;28;20021;-85
2023/08/26 01:09:24;;;;;;;2.50;1.25;;;18.70;69.00;;;;;;5053425;28;20387;-78
2023/08/26 01:12:10;;;;;;;10.68;1.20;;;18.90;68.70;;;;;;5054484;28;20031;-82
2023/08/26 01:14:51;;;;;;;4.97;1.55;;;19.10;68.40;;;;;;5053853;28;20506;-84
2023/08/26 01:17:19;;;;;;;4.13;1.30;;;19.10;66.90;;;;;;5054310;28;20035;-81
2023/08/26 01:19:47;;;;;;;5.50;1.45;;;19.20;66.90;;;;;;5053902;28;20068;-84
2023/08/26 01:22:19;;;;;;;6.88;1.70;;;19.20;66.50;;;;;;5053093;28;20052;-84
2023/08/26 01:24:47;;;;;;;3.85;1.40;;;19.10;66.50;;;;;;5054057;28;20021;-80
2023/08/26 01:27:14;;;;;;;2.92;1.20;;;19.00;66.90;;;;;;5054068;28;20486;-81
2023/08/26 01:29:42;;;;;;;6.60;1.58;;;19.00;67.10;;;;;;5053664;28;20094;-84
2023/08/26 01:32:26;;;;;;;4.82;1.38;;;19.00;67.40;;;;;;5052247;28;20468;-86
2023/08/26 01:34:58;;;;;;;4.57;1.35;;;19.00;66.80;;;;;;5053493;28;20044;-86
2023/08/26 01:37:27;;;;;;;5.10;1.10;;;19.10;67.30;;;;;;5052491;28;20028;-79
2023/08/26 01:39:58;;;;;;;3.90;1.45;;;19.20;67.10;;;;;;5052983;28;20024;-80
2023/08/26 01:42:26;;;;;;;2.33;1.20;;;19.30;67.00;;;;;;5052734;28;20028;-79
2023/08/26 01:44:54;;;;;;;5.35;1.30;;;19.30;66.80;;;;;;5052511;28;20112;-83
2023/08/26 01:47:22;;;;;;;3.08;1.30;;;19.30;66.60;;;;;;5052724;28;20053;-79
2023/08/26 01:49:49;;;;;;;4.20;1.35;;;19.40;66.50;;;;;;5052619;28;20017;-83
2023/08/26 01:52:17;;;;;;;3.35;1.40;;;19.40;66.40;;;;;;5052623;28;20520;-80
2023/08/26 01:54:49;;;;;;;4.75;1.35;;;19.50;66.00;;;;;;5051070;28;20054;-81
2023/08/26 01:57:19;;;;;;;5.35;1.30;;;19.40;65.70;;;;;;5052547;28;20043;-86
2023/08/26 01:59:47;;;;;;;1.67;0.80;;;19.40;65.70;;;;;;5052553;28;20060;-81
2023/08/26 02:02:14;;;;;;;2.42;1.00;;;19.30;65.80;;;;;;5052793;28;20376;-82
2023/08/26 02:04:42;;;;;;;6.75;1.20;;;19.50;66.10;;;;;;5052626;28;20032;-80
2023/08/26 02:07:09;;;;;;;6.20;1.23;;;19.50;66.20;;;;;;5052660;28;20483;-76
2023/08/26 02:09:37;;;;;;;3.90;1.40;;;19.50;65.60;;;;;;5053941;28;20469;-84
2023/08/26 02:12:04;;;;;;;4.55;1.48;;;19.50;65.50;;;;;;5052511;28;20016;-77
2023/08/26 02:14:31;;;;;;;5.32;1.40;;;19.60;65.50;;;;;;5052364;28;20025;-81
2023/08/26 02:16:59;;;;;;;3.08;1.17;;;19.60;65.40;;;;;;5052478;28;20021;-82
2023/08/26 02:19:26;;;;;;;3.30;1.30;;;19.60;65.20;;;;;;5051963;28;20041;-81
2023/08/26 02:21:55;;;;;;;4.05;1.15;;;19.50;65.00;;;;;;5052362;28;20028;-86
2023/08/26 02:24:22;;;;;;;5.18;1.23;;;19.40;65.10;;;;;;5052236;28;20336;-84
2023/08/26 02:26:49;;;;;;;1.88;1.00;;;19.30;65.20;;;;;;5052238;28;20021;-83
2023/08/26 02:29:17;;;;;;;3.40;1.40;;;19.30;65.50;;;;;;5053079;28;20464;-82
2023/08/26 02:31:45;;;;;;;4.20;1.50;;;19.30;65.60;;;;;;5052182;28;20403;-80
2023/08/26 02:34:12;;;;;;;3.78;1.25;;;19.20;65.80;;;;;;5052292;28;20020;-83
2023/08/26 02:36:39;;;;;;;4.57;1.38;;;19.20;66.10;;;;;;5051424;28;20021;-86
2023/08/26 02:39:08;;;;;;;6.80;1.52;;;19.20;66.20;;;;;;5052115;28;20100;-81
2023/08/26 02:41:35;;;;;;;3.78;1.45;;;19.20;66.30;;;;;;5054077;28;20590;-77
2023/08/26 02:44:02;;;;;;;4.10;1.33;;;19.20;66.30;;;;;;5053672;28;20110;-89
2023/08/26 02:46:30;;;;;;;4.40;1.67;;;19.30;66.50;;;;;;5054697;28;20095;-80
2023/08/26 02:48:57;;;;;;;3.58;1.33;;;19.40;66.40;;;;;;5054313;28;20480;-85
2023/08/26 02:51:24;;;;;;;4.60;1.25;;;19.50;66.20;;;;;;5055137;28;20116;-81
2023/08/26 02:53:52;;;;;;;4.60;1.75;;;19.50;65.50;;;;;;5054612;28;20048;-77
2023/08/26 02:56:20;;;;;;;4.30;1.35;;;19.50;65.20;;;;;;5054972;28;20115;-81
2023/08/26 02:58:48;;;;;;;4.43;1.52;;;19.60;65.10;;;;;;5054686;28;20021;-83
2023/08/26 03:01:19;;;;;;;4.65;1.70;;;19.50;65.30;;;;;;5053898;28;20053;-79
2023/08/26 03:03:46;;;;;;;3.72;1.88;;;19.50;65.00;;;;;;5053731;28;20078;-82
2023/08/26 03:06:13;;;;;;;4.10;1.63;;;19.40;65.00;;;;;;5053438;28;20059;-79
2023/08/26 03:08:41;;;;;;;3.22;1.10;;;19.40;65.10;;;;;;5053577;28;20504;-83
2023/08/26 03:11:09;;;;;;;4.53;1.27;;;19.40;65.30;;;;;;5055413;28;20044;-84
2023/08/26 03:13:36;;;;;;;5.35;1.40;;;19.30;65.50;;;;;;5055101;28;20033;-82
2023/08/26 03:16:08;;;;;;;6.10;1.52;;;19.30;65.70;;;;;;5055158;28;20021;-82
2023/08/26 03:18:36;;;;;;;3.60;1.75;;;19.30;65.70;;;;;;5054813;28;20025;-83
2023/08/26 03:21:08;;;;;;;5.40;1.60;;;19.30;65.30;;;;;;5055213;28;20383;-83
2023/08/26 03:23:35;;;;;;;6.70;1.30;;;19.30;65.50;;;;;;5054668;28;20090;-80
2023/08/26 03:26:04;;;;;;;5.78;1.50;;;19.20;65.60;;;;;;5055080;28;20033;-81
2023/08/26 03:28:31;;;;;;;5.05;1.30;;;19.30;65.70;;;;;;5054777;28;20376;-83
2023/08/26 03:31:08;;;;;;;4.35;1.88;;;19.40;65.50;;;;;;5054932;28;20029;-83
2023/08/26 03:33:35;;;;;;;3.15;1.40;;;19.40;65.10;;;;;;5054613;28;20032;-82
2023/08/26 03:36:07;;;;;;;4.63;1.70;;;19.40;65.00;;;;;;5054872;28;20103;-82
2023/08/26 03:38:37;;;;;;;4.50;1.50;;;19.40;65.10;;;;;;5053439;28;20350;-82
2023/08/26 03:41:05;;;;;;;3.55;1.00;;;19.30;65.10;;;;;;5054714;28;20048;-82
2023/08/26 03:43:33;;;;;;;4.20;1.23;;;19.30;65.20;;;;;;5054457;28;20159;-83
2023/08/26 03:46:03;;;;;;;6.05;1.38;;;19.30;65.40;;;;;;5053404;28;20499;-79
2023/08/26 03:48:30;;;;;;;4.32;1.00;;;19.30;65.40;;;;;;5054638;28;20021;-80
2023/08/26 03:50:58;;;;;;;4.22;1.35;;;19.20;65.30;;;;;;5054138;28;20475;-86
2023/08/26 03:53:27;;;;;;;7.03;1.27;;;19.20;65.20;;;;;;5054104;28;20032;-82
2023/08/26 03:55:54;;;;;;;3.60;1.40;;;19.20;65.10;;;;;;5054445;28;20456;-84
2023/08/26 03:58:22;;;;;;;4.63;1.10;;;19.20;65.30;;;;;;5054310;28;20028;-82
2023/08/26 04:00:50;;;;;;;5.05;1.30;;;19.10;65.50;;;;;;5054280;28;20037;-81
2023/08/26 04:03:18;;;;;;;9.00;2.25;;;19.20;65.70;;;;;;5054403;28;20037;-81
2023/08/26 04:05:45;;;;;;;4.75;1.10;;;19.20;66.00;;;;;;5054287;28;20016;-80
2023/08/26 04:08:13;;;;;;;4.15;1.30;;;19.20;65.70;;;;;;5054142;28;20028;-79
2023/08/26 04:10:41;;;;;;;6.32;1.52;;;19.40;65.30;;;;;;5054427;28;20021;-79
2023/08/26 04:13:24;;;;;;;5.78;1.15;;;19.40;64.80;;;;;;5054374;28;20021;-77
2023/08/26 04:16:02;;;;;;;5.15;1.13;;;19.40;64.80;;;;;;5054068;28;20021;-81
2023/08/26 04:18:31;;;;;;;6.40;1.20;;;19.40;64.70;;;;;;5053877;28;20112;-83
2023/08/26 04:20:58;;;;;;;4.63;1.30;;;19.30;64.30;;;;;;5054077;28;20079;-80
2023/08/26 04:23:26;;;;;;;4.55;1.00;;;19.30;64.80;;;;;;5055664;28;20035;-82
2023/08/26 04:25:58;;;;;;;4.63;1.30;;;19.30;64.80;;;;;;5054644;28;20082;-80
2023/08/26 04:28:26;;;;;;;2.53;1.13;;;19.30;65.00;;;;;;5054674;28;20379;-80
2023/08/26 04:30:53;;;;;;;3.35;1.10;;;19.40;64.70;;;;;;5054362;28;20013;-80
2023/08/26 04:33:21;;;;;;;3.75;1.10;;;19.40;64.70;;;;;;5054577;28;20029;-79
2023/08/26 04:35:48;;;;;;;5.85;1.40;;;19.50;64.80;;;;;;5054417;28;20116;-78
2023/08/26 04:38:15;;;;;;;4.47;1.20;;;19.50;64.60;;;;;;5054002;28;20083;-82
2023/08/26 04:40:43;;;;;;;2.60;1.27;;;19.40;64.40;;;;;;5054477;28;20033;-82
2023/08/26 04:43:11;;;;;;;3.17;0.90;;;19.40;64.50;;;;;;5054547;28;20023;-89
2023/08/26 04:45:42;;;;;;;2.45;0.93;;;19.30;64.60;;;;;;5055080;28;20036;-84
2023/08/26 04:48:10;;;;;;;4.30;1.20;;;19.30;64.70;;;;;;5054281;28;20132;-86
2023/08/26 04:50:41;;;;;;;5.65;1.50;;;19.30;64.70;;;;;;5053779;28;20036;-85
2023/08/26 04:53:08;;;;;;;2.50;1.00;;;19.20;64.50;;;;;;5053769;28;20162;-86
2023/08/26 04:55:41;;;;;;;3.38;1.20;;;19.20;64.70;;;;;;5047850;28;20036;-78
2023/08/26 04:58:09;;;;;;;3.30;1.13;;;19.20;64.50;;;;;;5042546;28;20021;-84
2023/08/26 05:00:40;;;;;;;1.80;0.90;;;19.20;64.60;;;;;;5049538;28;20076;-82
2023/08/26 05:03:08;;;;;;;3.80;1.15;;;19.20;64.50;;;;;;5050309;28;20031;-87
2023/08/26 05:05:35;;;;;;;6.05;1.27;;;19.20;64.70;;;;;;5055858;28;20037;-84
2023/08/26 05:08:03;;;;;;;2.38;0.93;;;19.20;64.10;;;;;;5045187;28;20423;-83
2023/08/26 05:10:30;;;;;;;2.83;1.00;;;19.10;63.90;;;;;;5046181;28;20033;-86
2023/08/26 05:13:00;;;;;;;3.45;0.98;;;19.10;63.90;;;;;;5045116;28;20040;-87
2023/08/26 05:15:31;;;;;;;3.58;0.88;;;19.20;63.50;;;;;;5037667;28;20022;-83
2023/08/26 05:17:58;;;;;;;3.17;1.08;;;19.20;63.20;;;;;;5033835;28;20483;-87
2023/08/26 05:20:27;;;;;;;3.45;0.90;;;19.20;63.20;;;;;;5033656;28;20133;-85
2023/08/26 05:22:58;;;;;;;3.38;0.90;;;19.20;62.90;;;;;;5034071;28;20072;-79
2023/08/26 05:25:25;;;;;;;2.95;1.00;;;19.20;62.90;;;;;;5042274;28;20021;-79
2023/08/26 05:27:53;;;;;;;3.25;1.10;;;19.20;63.20;;;;;;5043501;28;20084;-86
2023/08/26 05:30:21;;;;;;;1.90;1.00;;;19.30;63.20;;;;;;5042103;28;20099;-87
2023/08/26 05:32:49;;;;;;;3.78;1.13;;;19.30;62.70;;;;;;5039044;28;20018;-85
2023/08/26 05:35:16;;;;;;;5.07;1.13;;;19.30;62.70;;;;;;5038716;28;20025;-79
2023/08/26 05:37:45;;;;;;;6.35;1.20;;;19.30;62.20;;;;;;5044311;28;20395;-85
2023/08/26 05:40:16;;;;;;;4.07;1.13;;;19.20;61.60;;;;;;5039776;28;20124;-88
2023/08/26 05:42:44;;;;;;;2.53;1.10;;;19.20;60.80;;;;;;5036327;28;20091;-87
2023/08/26 05:45:13;;;;;;;4.18;1.50;;;19.20;61.20;;;;;;5036542;28;20056;-84
2023/08/26 05:47:41;;;;;;;5.45;1.17;;;19.20;61.50;;;;;;5042172;28;20049;-85
2023/08/26 05:50:11;;;;;;;4.93;1.13;;;19.10;61.80;;;;;;5037699;28;20029;-84
2023/08/26 05:52:39;;;;;;;6.78;1.42;;;19.10;62.20;;;;;;5050016;28;20480;-77
2023/08/26 05:55:07;;;;;;;6.30;1.20;;;19.10;62.70;;;;;;5047161;28;20029;-83
2023/08/26 05:57:34;;;;;;;3.10;0.90;;;19.00;62.90;;;;;;5055985;28;20017;-77
2023/08/26 06:00:02;;;;;;;3.40;1.08;;;19.10;62.90;;;;;;5062745;28;20082;-77
2023/08/26 06:02:34;;;;;;;3.20;1.30;;;19.00;63.10;;;;;;5071061;28;20025;-80
2023/08/26 06:05:02;;;;;;;4.20;1.13;;;19.00;63.40;;;;;;5060416;28;20053;-85
2023/08/26 06:07:30;;;;;;;3.33;1.10;;;19.10;63.50;;;;;;5058509;28;20120;-83
2023/08/26 06:09:58;;;;;;;5.55;1.20;;;19.10;63.60;;;;;;5056164;28;20106;-83
2023/08/26 06:12:27;;;;;;;3.97;1.30;;;19.00;63.70;;;;;;5049570;28;20048;-81
2023/08/26 06:14:54;;;;;;;3.70;1.40;;;19.00;63.80;;;;;;5039146;28;20112;-85
2023/08/26 06:17:23;;;;;;;2.90;1.08;;;19.00;63.90;;;;;;5054757;28;20094;-85
2023/08/26 06:19:54;;;;;;;3.03;1.08;;;19.00;63.80;;;;;;5047265;28;20037;-83
2023/08/26 06:22:25;;;;;;;3.10;0.98;;;19.00;63.80;;;;;;5050951;28;20028;-87
2023/08/26 06:24:53;;;;;;;6.45;1.33;;;18.90;63.80;;;;;;5055922;28;20052;-85
2023/08/26 06:27:25;;;;;;;4.35;1.23;;;18.90;63.40;;;;;;5056338;28;20032;-86
2023/08/26 06:29:58;;;;;;;3.47;1.02;;;18.80;63.50;;;;;;5053379;28;20546;-88
2023/08/26 06:32:30;;;;;;;2.70;1.13;;;18.80;63.60;;;;;;5044532;28;20021;-81
2023/08/26 06:35:00;;;;;;;2.70;1.35;;;18.80;63.70;;;;;;5054409;28;20124;-82
2023/08/26 06:37:35;;;;;;;3.78;1.10;;;18.80;63.90;;;;;;5042884;28;20034;-87
2023/08/26 06:40:07;;;;;;;;;;;18.80;64.10;;;;;;5041939;28;20115;-83
2023/08/26 06:42:37;;;;;;;4.63;1.10;;;18.70;64.20;;;;;;5043533;28;19916;-82
2023/08/26 06:45:05;;;;;;;5.25;1.20;;;18.70;64.40;;;;;;5034903;28;20032;-84
2023/08/26 06:47:32;;;;;;;2.25;1.10;;;18.60;64.50;;;;;;5036855;28;20633;-84
2023/08/26 06:50:12;;;;;;;4.38;1.10;;;18.60;64.60;;;;;;5035725;28;20026;-83
2023/08/26 06:52:39;;;;;;;4.22;1.10;;;18.50;64.70;;;;;;5036517;28;20148;-84
2023/08/26 06:55:08;;;;;;;4.25;1.10;;;18.50;64.90;;;;;;5036177;28;20029;-85
2023/08/26 06:57:39;;;;;;;3.00;1.20;;;18.50;65.30;;;;;;5039766;28;20387;-80
2023/08/26 07:00:11;;;;;;;2.67;1.20;;;18.40;65.50;;;;;;5053668;28;20561;-83
2023/08/26 07:02:40;;;;;;;1.98;1.00;;;18.40;65.60;;;;;;5052453;28;20395;-86
2023/08/26 07:05:08;;;;;;;5.32;1.40;;;18.40;65.90;;;;;;5053883;28;20029;-81
2023/08/26 07:07:36;;;;;;;3.85;1.25;;;18.30;66.00;;;;;;5053562;28;20024;-85
2023/08/26 07:10:04;;;;;;;3.63;1.02;;;18.30;66.20;;;;;;5053867;28;20013;-84
2023/08/26 07:12:34;;;;;;;5.25;1.15;;;18.30;66.20;;;;;;5054013;28;20078;-86
2023/08/26 07:15:06;;;;;;;2.95;1.00;;;18.20;66.20;;;;;;5053712;28;20044;-80
2023/08/26 07:17:34;;;;;;;3.42;1.10;;;18.20;66.30;;;;;;5055862;28;20025;-86
2023/08/26 07:20:02;;;;;;;1.98;0.95;;;18.20;66.60;;;;;;5055291;28;20404;-86
2023/08/26 07:22:30;;;;;;;4.35;1.60;;;18.20;66.70;;;;;;5055521;28;20029;-82
2023/08/26 07:24:57;;;;;;;3.80;1.20;;;18.20;67.00;;;;;;5049764;28;20036;-85
2023/08/26 07:27:24;;;;;;;4.53;1.38;;;18.10;66.90;;;;;;5055242;28;20025;-88
2023/08/26 07:29:52;;;;;;;4.30;1.50;;;18.10;67.10;;;;;;5055301;28;20154;-86
2023/08/26 07:32:19;;;;;;;3.80;1.33;;;18.00;67.40;;;;;;5055405;28;20031;-82
2023/08/26 07:34:47;;;;;;;6.80;2.83;;;18.00;67.50;;;;;;5053959;28;20424;-85
2023/08/26 07:37:14;;;;;;;5.15;2.55;;;18.00;67.60;;;;;;5055004;28;20051;-87
2023/08/26 07:39:45;;;;;;;4.85;2.67;;;17.90;68.20;;;;;;5055159;28;20507;-86
2023/08/26 07:42:15;;;;;;;7.38;2.63;;;17.90;68.20;;;;;;5051417;28;20041;-81
2023/08/26 07:44:43;;;;;;;5.47;2.65;;;17.90;68.50;;;;;;5049926;28;20032;-84
2023/08/26 07:47:10;;;;;;;5.15;2.00;;;17.80;68.50;;;;;;5035050;28;20017;-84
2023/08/26 07:49:40;;;;;;;4.95;2.20;;;17.80;68.90;;;;;;5041638;28;20680;-84
2023/08/26 07:52:07;;;;;;;5.82;2.03;;;17.70;69.10;;;;;;5043535;28;20043;-81
2023/08/26 07:54:35;;;;;;;4.35;1.80;;;17.70;69.00;;;;;;5047033;28;20025;-86
2023/08/26 07:57:04;;;;;;;7.43;2.30;;;17.60;68.90;;;;;;5055008;28;20502;-83
2023/08/26 07:59:35;;;;;;;8.55;2.60;;;17.60;68.90;;;;;;5041579;28;20087;-80
2023/08/26 08:02:03;;;;;;;4.63;2.10;;;17.50;69.00;;;;;;5045647;28;20051;-85
2023/08/26 08:04:30;;;;;;;5.95;1.88;;;17.40;69.20;;;;;;5044037;28;20029;-83
2023/08/26 08:07:01;;;;;;;4.60;1.50;;;17.40;69.60;;;;;;5053322;28;20062;-82
2023/08/26 08:09:29;;;;;;;6.10;2.50;;;17.30;69.80;;;;;;5046918;28;20068;-79
2023/08/26 08:11:56;;;;;;;6.28;2.25;;;17.20;70.10;;;;;;5053496;28;20084;-84
2023/08/26 08:14:25;;;;;;;5.32;2.00;;;17.20;70.20;;;;;;5050028;28;20067;-94
2023/08/26 08:16:54;;;;;;;5.93;1.80;;;17.10;70.50;;;;;;5044116;28;20090;-82
2023/08/26 08:19:23;;;;;;;5.47;1.75;;;17.00;70.90;;;;;;5037918;28;20050;-75
2023/08/26 08:21:50;;;;;;;5.55;2.20;;;16.90;71.20;;;;;;5054522;28;20101;-83
2023/08/26 08:24:17;;;;;;;5.70;2.20;;;16.90;71.40;;;;;;5055620;28;20025;-78
2023/08/26 08:26:46;;;;;;;4.03;2.13;;;16.90;71.40;;;;;;5055928;28;20029;-91
2023/08/26 08:29:13;;;;;;;6.25;2.40;;;16.80;71.40;;;;;;5056892;28;20023;-94
2023/08/26 08:31:44;;;;;;;6.28;2.50;;;16.70;71.80;;;;;;5048517;28;20480;-83
2023/08/26 08:34:11;;;;;;;6.43;2.28;;;16.70;72.10;;;;;;5053939;28;20028;-83
2023/08/26 08:36:38;;;;;;;3.42;1.85;;;16.70;72.40;;;;;;5052792;28;20067;-86
2023/08/26 08:39:09;;;;;;;5.47;2.75;;;16.60;72.60;;;;;;5053914;28;20040;-88
2023/08/26 08:41:36;;;;;;;6.18;2.28;;;16.60;72.60;;;;;;5051140;28;20527;-87
2023/08/26 08:44:13;;;;;;;7.28;3.17;;;16.50;72.70;;;;;;5048004;28;20112;-83
2023/08/26 08:46:41;;;;;;;9.68;4.45;;;16.50;73.00;;;;;;5037934;28;20120;-84
2023/08/26 08:49:08;;;;;;;9.10;4.80;;;16.50;72.90;;;;;;5045347;28;20029;-84
2023/08/26 08:51:37;;;;;;;6.55;3.80;;;16.40;72.90;;;;;;5034017;28;20106;-87
2023/08/26 08:54:09;;;;;;;6.93;4.40;;;16.40;73.20;;;;;;5034249;28;20053;-84
2023/08/26 08:56:37;;;;;;;8.95;6.25;;;16.40;73.40;;;;;;5049279;28;20021;-82
2023/08/26 08:59:06;;;;;;;13.18;7.40;;;16.30;73.50;;;;;;5047340;28;20135;-85
2023/08/26 09:01:34;;;;;;;10.00;6.32;;;16.20;73.70;;;;;;5043286;28;20048;-83
2023/08/26 09:04:02;;;;;;;18.02;6.63;;;16.20;73.70;;;;;;5036719;28;20505;-85
2023/08/26 09:06:31;;;;;;;9.07;6.22;;;16.20;73.70;;;;;;5038254;28;20116;-86
2023/08/26 09:09:02;;;;;;;8.52;5.70;;;16.20;74.10;;;;;;5048102;28;20045;-84
2023/08/26 09:11:30;;;;;;;11.02;5.55;;;16.20;74.30;;;;;;5040968;28;20048;-86
2023/08/26 09:13:58;;;;;;;10.35;5.50;;;16.10;74.30;;;;;;5051753;28;20028;-85
2023/08/26 09:16:39;;;;;;;10.00;5.30;;;16.20;74.30;;;;;;5034880;28;20021;-89
2023/08/26 09:19:11;;;;;;;8.45;4.97;;;16.20;74.20;;;;;;5036109;28;20049;-87
2023/08/26 09:21:57;;;;;;;7.30;5.38;;;16.10;74.40;;;;;;5034836;28;20037;-88
2023/08/26 09:24:48;;;;;;;12.73;4.88;;;16.00;74.40;;;;;;5048203;28;20030;-89
2023/08/26 09:27:41;;;;;;;7.68;4.30;;;16.00;74.70;;;;;;5045740;28;20036;-86
2023/08/26 09:30:21;;;;;;;8.73;4.72;;;15.90;75.10;;;;;;5096997;28;20021;-88
2023/08/26 09:32:56;;;;;;;10.10;5.20;;;15.90;75.10;;;;;;5057270;28;20033;-83
2023/08/26 09:35:23;;;;;;;9.65;5.20;;;15.90;75.20;;;;;;5060946;28;20048;-85
2023/08/26 09:37:58;;;;;;;7.82;4.68;;;15.80;75.30;;;;;;5056900;28;20013;-82
2023/08/26 09:40:26;;;;;;;9.73;5.47;;;15.80;75.30;;;;;;5061292;28;20085;-87
2023/08/26 09:42:54;;;;;;;10.13;5.40;;;15.80;75.50;;;;;;5058936;28;20014;-88
2023/08/26 09:45:28;;;;;;;10.95;5.20;;;15.70;75.50;;;;;;5041988;28;20030;-87
2023/08/26 09:47:56;;;;;;;11.55;5.57;;;15.70;75.60;;;;;;5039423;28;20025;-87
2023/08/26 09:50:33;;;;;;;9.40;5.78;;;15.70;75.90;;;;;;5044476;28;20123;-88
2023/08/26 09:53:00;;;;;;;9.18;5.32;;;15.70;76.00;;;;;;5050064;28;20104;-89
2023/08/26 09:55:30;;;;;;;9.38;5.18;;;15.70;76.10;;;;;;5043690;28;20114;-90
2023/08/26 09:57:59;;;;;;;10.23;5.03;;;15.70;76.20;;;;;;5049903;28;20130;-87
2023/08/26 10:00:27;;;;;;;7.63;5.07;;;15.60;76.40;;;;;;5061614;28;20196;-88
2023/08/26 10:03:02;;;;;;;13.45;6.72;;;15.70;76.40;;;;;;5044989;28;20076;-87
2023/08/26 10:05:33;;;;;;;11.35;5.85;;;15.70;76.20;;;;;;5087566;28;20043;-85
2023/08/26 10:08:07;;;;;;;8.07;4.80;;;15.70;76.00;;;;;;5047707;28;20067;-87
2023/08/26 10:10:49;;;;;;;10.35;5.22;;;15.70;76.20;;;;;;5047386;28;20033;-85
2023/08/26 10:13:20;;;;;;;8.20;5.13;;;15.70;76.10;;;;;;5054425;28;20029;-80
2023/08/26 10:15:51;;;;;;;8.07;4.72;;;15.70;76.10;;;;;;5059564;28;20032;-83
2023/08/26 10:18:43;;;;;;;10.20;4.93;;;15.70;76.10;;;;;;5054724;28;20021;-82
2023/08/26 10:21:14;;;;;;;8.07;4.53;;;15.70;76.10;;;;;;5043213;28;20064;-88
2023/08/26 10:23:42;;;;;;;7.57;4.15;;;15.70;76.10;;;;;;5045876;28;20029;-86
2023/08/26 10:26:10;;;;;;;5.82;3.72;;;15.70;76.30;;;;;;5039543;28;20025;-86
2023/08/26 10:28:39;;;;;;;8.57;4.07;;;15.60;76.30;;;;;;5038876;28;20031;-86
2023/08/26 10:31:09;;;;;;;9.55;3.90;;;15.50;76.50;;;;;;5045810;28;20026;-85
2023/08/26 10:34:06;;;;;;;8.75;4.05;;;15.60;76.70;;;;;;5052004;28;20083;-88
2023/08/26 10:36:38;;;;;;;9.82;3.92;;;15.50;76.80;;;;;;5056752;28;20013;-86
2023/08/26 10:39:16;;;;;;;8.27;3.70;;;15.50;76.90;;;;;;5051261;28;20500;-87
2023/08/26 10:42:17;;;;;;;6.43;3.58;;;15.50;76.90;;;;;;5036834;28;20087;-82
2023/08/26 10:44:58;;;;;;;8.27;4.05;;;15.50;77.00;;;;;;5037462;28;20053;-88
2023/08/26 10:47:38;;;;;;;6.72;4.50;;;15.50;76.80;;;;;;5067479;28;20047;-86
2023/08/26 10:50:22;;;;;;;8.05;3.50;;;15.50;76.80;;;;;;5050845;28;20033;-88
2023/08/26 10:52:59;;;;;;;9.02;3.97;;;15.40;76.80;;;;;;5052266;28;20074;-88
2023/08/26 10:55:33;;;;;;;7.43;4.00;;;15.40;77.00;;;;;;5036769;28;20025;-81
2023/08/26 10:58:09;;;;;;;5.70;3.30;;;15.30;77.30;;;;;;5036599;28;20033;-85
2023/08/26 11:00:37;;;;;;;;;;;15.40;77.60;;;;;;5035622;28;20060;-85
2023/08/26 11:03:10;;;;;;;8.70;3.70;;;15.40;77.40;;;;;;5038243;28;19909;-86
2023/08/26 11:05:45;;;;;;;5.68;3.20;;;15.30;77.30;;;;;;5052796;28;20080;-85
2023/08/26 11:08:13;;;;;;;6.53;3.27;;;15.40;77.40;;;;;;5043649;28;20048;-86
2023/08/26 11:10:42;;;;;;;7.55;3.60;;;15.40;77.40;;;;;;5040493;28;20273;-84
2023/08/26 11:13:11;;;;;;;7.18;3.75;;;15.30;77.40;;;;;;5035394;28;20044;-84
2023/08/26 11:15:40;;;;;;;7.03;4.03;;;15.30;77.50;;;;;;5039462;28;20075;-85
2023/08/26 11:18:10;;;;;;;9.00;5.63;;;15.30;77.50;;;;;;5037357;28;20053;-81
2023/08/26 11:20:38;;;;;;;9.00;4.60;;;15.30;77.50;;;;;;5040253;28;20491;-81
2023/08/26 11:23:07;;;;;;;7.53;4.72;;;15.30;77.70;;;;;;5048998;28;20104;-86
2023/08/26 11:25:35;;;;;;;31.85;24.67;;;15.30;77.70;;;;;;5035061;28;20091;-84
2023/08/26 11:28:10;;;;;;;19.60;14.73;;;15.30;77.80;;;;;;5035950;28;20079;-83
2023/08/26 11:30:41;;;;;;;9.73;7.13;;;15.30;77.70;;;;;;5035773;28;20029;-82
2023/08/26 11:33:15;;;;;;;12.30;8.00;;;15.30;77.60;;;;;;5046285;28;20071;-85
2023/08/26 11:35:46;;;;;;;11.75;7.78;;;15.30;77.60;;;;;;5053430;28;20076;-81
2023/08/26 11:38:15;;;;;;;20.58;15.50;;;15.30;77.60;;;;;;5049329;28;20072;-82
2023/08/26 11:40:45;;;;;;;15.15;11.65;;;15.30;77.50;;;;;;5046881;28;20437;-83
2023/08/26 11:43:14;;;;;;;15.70;10.20;;;15.20;77.50;;;;;;5040970;28;20013;-81
2023/08/26 11:45:43;;;;;;;25.92;19.23;;;15.20;77.70;;;;;;5046313;28;20024;-82
2023/08/26 11:48:11;;;;;;;33.10;24.45;;;15.20;78.20;;;;;;5055009;28;20103;-83
2023/08/26 11:50:41;;;;;;;24.60;15.68;;;15.20;78.00;;;;;;5054695;28;20032;-81
2023/08/26 11:53:08;;;;;;;22.65;17.58;;;15.20;78.00;;;;;;5054434;28;20029;-84
2023/08/26 11:55:36;;;;;;;22.90;16.55;;;15.10;78.00;;;;;;5053348;28;20107;-82
2023/08/26 11:58:04;;;;;;;24.48;16.65;;;15.10;78.40;;;;;;5038161;28;20056;-83
2023/08/26 12:00:33;;;;;;;20.50;15.63;;;15.00;78.20;;;;;;5054814;28;20380;-81
2023/08/26 12:03:03;;;;;;;23.05;15.35;;;15.00;78.40;;;;;;5040256;28;20029;-80
2023/08/26 12:05:52;;;;;;;19.58;14.85;;;15.00;78.30;;;;;;5034290;28;20072;-81
2023/08/26 12:08:22;;;;;;;19.73;14.90;;;15.00;78.40;;;;;;5039459;28;20031;-84
2023/08/26 12:10:53;;;;;;;18.95;13.15;;;15.00;78.90;;;;;;5054051;28;20113;-79
2023/08/26 12:13:21;;;;;;;18.52;12.00;;;15.10;78.90;;;;;;5048267;28;20021;-80
2023/08/26 12:15:49;;;;;;;12.93;9.52;;;15.00;78.30;;;;;;5034242;28;20025;-81
2023/08/26 12:18:20;;;;;;;15.00;10.93;;;14.90;78.10;;;;;;5038913;28;20096;-81
2023/08/26 12:20:49;;;;;;;15.00;9.65;;;14.90;78.40;;;;;;5042560;28;20049;-81
2023/08/26 12:23:20;;;;;;;15.27;9.93;;;14.90;78.80;;;;;;5035399;28;20021;-82
2023/08/26 12:25:47;;;;;;;17.40;8.57;;;14.80;78.70;;;;;;5038735;28;20029;-85
2023/08/26 12:28:24;;;;;;;17.35;9.32;;;14.80;78.90;;;;;;5050147;28;20118;-85
2023/08/26 12:30:52;;;;;;;14.18;8.40;;;14.80;78.70;;;;;;5041085;28;20485;-84
2023/08/26 12:33:21;;;;;;;12.55;8.55;;;14.80;78.80;;;;;;5040629;28;20025;-85
2023/08/26 12:35:48;;;;;;;15.45;8.75;;;14.80;78.90;;;;;;5054666;28;20043;-86
2023/08/26 12:38:17;;;;;;;15.48;8.63;;;14.70;79.10;;;;;;5049749;28;20108;-86
2023/08/26 12:40:47;;;;;;;16.10;9.43;;;14.70;79.10;;;;;;5039328;28;20457;-85
2023/08/26 12:43:15;;;;;;;14.85;9.43;;;14.70;79.40;;;;;;5035938;28;20024;-85
2023/08/26 12:45:43;;;;;;;19.35;11.00;;;14.70;79.40;;;;;;5039806;28;20067;-86
2023/08/26 12:48:10;;;;;;;15.38;9.75;;;14.70;79.40;;;;;;5036591;28;20380;-86
2023/08/26 12:50:48;;;;;;;17.70;9.70;;;14.70;79.50;;;;;;5042009;28;20085;-79
2023/08/26 12:53:15;;;;;;;15.05;9.65;;;14.70;79.60;;;;;;5045827;28;20059;-80
2023/08/26 12:55:43;;;;;;;17.83;11.25;;;14.70;79.70;;;;;;5053798;28;20025;-82
2023/08/26 12:58:17;;;;;;;17.90;10.70;;;14.70;79.70;;;;;;5054055;28;20109;-79